Time;durP1;ratioP1;P1;durP2;ratioP2;P2;SDS_P1;SDS_P2;PMS_P1;PMS_P2;Temp;Humidity;BMP_temperature;BMP_pressure;BME280_temperature;BME280_humidity;BME280_pressure;Samples;Min_cycle;Max_cycle;Signal;HPM_P1;HPM_P2
2022/01/12 00:00:23;;;;;;;13.88;8.88;;;;;;;4.87;74.47;101640.75;5090951;28;20051;-63
2022/01/12 00:02:50;;;;;;;13.93;8.63;;;;;;;4.85;75.05;101642.53;5091077;28;20044;-63
2022/01/12 00:05:18;;;;;;;14.93;9.07;;;;;;;4.85;74.82;101647.75;5092649;28;20396;-62
2022/01/12 00:07:50;;;;;;;17.17;9.45;;;;;;;4.85;75.28;101637.31;5091091;28;20078;-64
2022/01/12 00:10:18;;;;;;;15.55;9.88;;;;;;;4.82;74.72;101631.19;5092202;28;20072;-65
2022/01/12 00:12:45;;;;;;;18.27;9.55;;;;;;;4.83;74.84;101632.09;5090775;28;20500;-64
2022/01/12 00:15:14;;;;;;;16.85;9.10;;;;;;;4.80;74.25;101625.13;5092182;28;20101;-63
2022/01/12 00:17:40;;;;;;;14.40;9.55;;;;;;;4.81;75.12;101641.63;5092257;28;20059;-63
2022/01/12 00:20:07;;;;;;;14.70;9.00;;;;;;;4.79;75.15;101633.81;5092018;28;20080;-64
2022/01/12 00:22:36;;;;;;;18.45;10.38;;;;;;;4.78;75.33;101642.50;5092206;28;20078;-63
2022/01/12 00:33:16;;;;;;;23.23;9.50;;;;;;;4.74;74.96;101622.53;5091998;28;20056;-64
2022/01/12 00:35:49;;;;;;;14.52;9.02;;;;;;;4.71;73.40;101635.56;5091714;28;20084;-62
2022/01/12 00:38:21;;;;;;;19.45;9.85;;;;;;;4.72;74.57;101654.72;5091865;28;20055;-63
2022/01/12 00:40:51;;;;;;;18.45;10.15;;;;;;;4.71;74.16;101661.66;5091481;28;20047;-64
2022/01/12 00:43:19;;;;;;;17.42;9.02;;;;;;;4.71;74.77;101653.81;5090107;28;20048;-63
2022/01/12 00:45:47;;;;;;;16.38;9.38;;;;;;;4.71;75.09;101661.66;5090366;28;20404;-64
2022/01/12 00:48:15;;;;;;;16.48;9.85;;;;;;;4.73;75.49;101656.44;5091386;28;20052;-62
2022/01/12 00:50:43;;;;;;;13.43;9.20;;;;;;;4.74;74.80;101666.88;5091371;28;20105;-64
2022/01/12 00:53:10;;;;;;;16.48;8.95;;;;;;;4.77;75.90;101668.59;5090082;28;20048;-65
2022/01/12 00:55:38;;;;;;;16.75;9.45;;;;;;;4.79;75.72;101669.50;5091444;28;20823;-63
2022/01/12 00:58:05;;;;;;;16.40;9.00;;;;;;;4.80;75.75;101658.19;5089941;28;20101;-63
2022/01/12 01:00:32;;;;;;;18.25;9.00;;;;;;;4.82;75.60;101659.91;5089812;28;20048;-63
2022/01/12 01:02:59;;;;;;;16.42;9.48;;;;;;;4.83;75.62;101661.63;5089867;28;20484;-63
2022/01/12 01:05:27;;;;;;;16.95;9.25;;;;;;;4.86;75.63;101665.97;5091197;28;20615;-64
2022/01/12 01:07:54;;;;;;;16.52;9.55;;;;;;;4.85;75.20;101663.41;5089913;28;20086;-64
2022/01/12 01:10:35;;;;;;;15.32;9.00;;;;;;;4.87;75.30;101661.63;5091037;28;20113;-63
2022/01/12 01:13:02;;;;;;;19.70;9.18;;;;;;;4.88;75.72;101660.75;5091287;28;20048;-63
2022/01/12 01:15:53;;;;;;;15.23;8.80;;;;;;;4.89;75.47;101675.53;5091068;28;20052;-64
2022/01/12 01:26:35;;;;;;;17.30;9.40;;;;;;;4.89;75.12;101693.81;5090976;28;20097;-64
2022/01/12 01:29:02;;;;;;;16.58;10.70;;;;;;;4.89;75.25;101699.91;5090639;28;20484;-62
2022/01/12 01:31:32;;;;;;;17.38;9.25;;;;;;;4.90;75.66;101708.63;5089195;28;20500;-64
2022/01/12 01:34:07;;;;;;;17.20;9.77;;;;;;;4.90;75.61;101716.44;5089282;28;20489;-65
2022/01/12 01:36:36;;;;;;;20.17;9.85;;;;;;;4.92;75.64;101725.13;5090798;28;20051;-64
2022/01/12 01:39:03;;;;;;;18.30;9.85;;;;;;;4.93;75.73;101714.69;5089615;28;20052;-63
2022/01/12 01:41:30;;;;;;;15.65;9.57;;;;;;;4.96;75.97;101721.63;5089303;28;20048;-62
2022/01/12 01:54:49;;;;;;;18.95;10.40;;;;;;;4.96;75.84;101721.63;5089703;28;20052;-63
2022/01/12 01:57:16;;;;;;;19.08;10.38;;;;;;;4.95;75.74;101714.69;5089427;28;20056;-64
2022/01/12 01:59:45;;;;;;;18.60;10.20;;;;;;;4.94;75.47;101720.78;5090335;28;20055;-62
2022/01/12 02:02:13;;;;;;;17.58;10.48;;;;;;;4.92;75.64;101727.72;5088872;28;20094;-63
2022/01/12 02:04:40;;;;;;;19.63;10.05;;;;;;;4.92;75.73;101725.13;5088840;28;20044;-64
2022/01/12 02:07:07;;;;;;;16.58;9.98;;;;;;;4.91;75.84;101715.56;5088735;28;20048;-63
2022/01/12 02:09:37;;;;;;;19.55;10.45;;;;;;;4.91;75.98;101723.38;5090054;28;20052;-63
2022/01/12 02:12:04;;;;;;;20.20;10.18;;;;;;;4.90;75.83;101721.66;5090239;28;20148;-63
2022/01/12 02:14:31;;;;;;;19.60;10.77;;;;;;;4.90;75.95;101729.50;5090250;28;20488;-63
2022/01/12 02:17:16;;;;;;;16.73;9.93;;;;;;;4.90;76.29;101717.28;5090172;28;20449;-62
2022/01/12 02:36:28;;;;;;;16.70;10.25;;;;;;;4.90;76.30;101692.94;5089964;28;20450;-63
2022/01/12 02:41:42;;;;;;;20.75;11.70;;;;;;;4.89;76.19;101706.84;5090175;28;20056;-62
2022/01/12 02:54:49;;;;;;;21.10;11.73;;;;;;;4.95;76.74;101725.13;5089729;28;20045;-62
2022/01/12 02:57:17;;;;;;;25.85;12.48;;;;;;;4.98;76.82;101724.25;5088498;28;20549;-64
2022/01/12 03:00:04;;;;;;;22.83;12.77;;;;;;;5.00;76.73;101725.09;5088014;28;20063;-63
2022/01/12 03:02:38;;;;;;;20.17;12.05;;;;;;;5.03;76.32;101728.59;5089703;28;20056;-64
2022/01/12 03:07:37;;;;;;;21.02;11.90;;;;;;;5.07;76.32;101732.06;5093487;28;20052;-63
2022/01/12 03:10:09;;;;;;;24.48;12.38;;;;;;;5.05;75.10;101737.28;5093201;28;20067;-64
2022/01/12 03:12:37;;;;;;;25.52;12.52;;;;;;;5.08;76.52;101749.44;5092249;28;20056;-64
2022/01/12 03:15:05;;;;;;;23.85;12.70;;;;;;;5.12;76.28;101756.41;5093218;28;20684;-63
2022/01/12 03:17:31;;;;;;;21.42;11.82;;;;;;;5.13;76.59;101754.69;5091964;28;20052;-63
2022/01/12 03:19:58;;;;;;;22.48;13.25;;;;;;;5.13;76.25;101755.56;5093146;28;20048;-63
2022/01/12 03:22:24;;;;;;;18.63;11.73;;;;;;;5.14;76.65;101749.47;5093045;28;20105;-63
2022/01/12 03:24:52;;;;;;;24.67;12.10;;;;;;;5.15;76.11;101751.19;5093344;28;20101;-63
2022/01/12 03:27:20;;;;;;;19.73;12.05;;;;;;;5.17;76.24;101746.84;5093245;28;20047;-62
2022/01/12 03:29:50;;;;;;;21.45;12.77;;;;;;;5.18;76.09;101755.53;5091116;28;20048;-64
2022/01/12 03:32:23;;;;;;;20.63;12.18;;;;;;;5.20;76.36;101756.41;5093008;28;20048;-63
2022/01/12 03:34:57;;;;;;;22.42;12.82;;;;;;;5.20;76.22;101772.94;5092923;28;20592;-63
2022/01/12 03:37:54;;;;;;;20.63;12.23;;;;;;;5.22;76.39;101772.94;5091757;28;20102;-63
2022/01/12 03:40:21;;;;;;;21.17;12.75;;;;;;;5.23;76.31;101774.66;5092861;28;20051;-64
2022/01/12 03:42:48;;;;;;;20.90;12.73;;;;;;;5.24;75.92;101771.19;5093060;28;20097;-63
2022/01/12 03:45:15;;;;;;;23.77;12.50;;;;;;;5.23;76.01;101761.59;5092814;28;20055;-62
2022/01/12 03:47:42;;;;;;;24.65;13.93;;;;;;;5.24;76.06;101765.09;5092881;28;20381;-64
2022/01/12 03:50:08;;;;;;;24.65;13.90;;;;;;;5.22;76.41;101758.16;5092629;28;20102;-64
2022/01/12 03:52:35;;;;;;;22.25;13.02;;;;;;;5.22;76.39;101768.59;5092892;28;20101;-62
2022/01/12 03:55:05;;;;;;;23.00;13.98;;;;;;;5.23;76.27;101761.59;5092525;28;20130;-63
2022/01/12 03:57:31;;;;;;;20.90;12.98;;;;;;;5.24;76.20;101758.16;5092542;28;20105;-63
2022/01/12 03:59:58;;;;;;;26.75;13.70;;;;;;;5.25;76.25;101766.81;5092167;28;20060;-64
2022/01/12 04:02:25;;;;;;;24.05;13.00;;;;;;;5.25;76.34;101766.81;5092600;28;20097;-62
2022/01/12 04:05:08;;;;;;;21.35;12.80;;;;;;;5.25;76.71;101767.72;5092165;28;20431;-64
2022/01/12 04:10:19;;;;;;;24.65;12.05;;;;;;;5.31;76.91;101764.22;5092312;28;20044;-62
2022/01/12 04:12:51;;;;;;;21.65;11.82;;;;;;;5.33;76.74;101765.06;5092393;28;20048;-61
2022/01/12 04:15:18;;;;;;;19.48;13.68;;;;;;;5.35;76.62;101766.81;5092611;28;20052;-61
2022/01/12 04:17:44;;;;;;;19.17;11.82;;;;;;;5.38;76.83;101762.47;5091653;28;20101;-62
2022/01/12 04:20:11;;;;;;;24.75;13.00;;;;;;;5.37;76.89;101772.03;5091960;28;20449;-61
2022/01/12 04:25:25;;;;;;;26.95;13.77;;;;;;;5.41;76.26;101776.38;5092424;28;20133;-61
2022/01/12 04:27:52;;;;;;;24.77;13.68;;;;;;;5.41;76.15;101783.31;5091805;28;20048;-62
2022/01/12 04:30:19;;;;;;;18.88;13.05;;;;;;;5.41;76.06;101775.50;5091666;28;20048;-61
2022/01/12 04:32:45;;;;;;;27.00;13.60;;;;;;;5.39;75.96;101769.41;5091738;28;20051;-61
2022/01/12 04:35:14;;;;;;;21.48;13.40;;;;;;;5.38;75.96;101765.06;5091720;28;20059;-61
2022/01/12 04:37:41;;;;;;;25.38;13.32;;;;;;;5.35;75.81;101766.81;5091525;28;20059;-62
2022/01/12 04:40:09;;;;;;;24.73;14.63;;;;;;;5.32;75.71;101758.13;5090395;28;20561;-63
2022/01/12 04:42:36;;;;;;;29.10;15.93;;;;;;;5.28;75.52;101756.38;5090655;28;20052;-61
2022/01/12 04:45:17;;;;;;;30.02;14.80;;;;;;;5.24;75.69;101749.44;5090351;28;20059;-61
2022/01/12 04:48:00;;;;;;;27.80;15.40;;;;;;;5.21;75.86;101750.31;5091454;28;20077;-62
2022/01/12 04:50:29;;;;;;;25.38;14.68;;;;;;;5.18;75.88;101752.91;5091375;28;20120;-61
2022/01/12 04:52:56;;;;;;;26.67;14.80;;;;;;;5.15;76.38;101758.13;5090467;28;20059;-61
2022/01/12 04:55:23;;;;;;;25.63;14.80;;;;;;;5.14;76.40;101777.28;5090384;28;20649;-60
2022/01/12 04:57:49;;;;;;;25.30;14.55;;;;;;;5.11;76.71;101766.84;5091269;28;20052;-62
2022/01/12 05:00:17;;;;;;;26.23;14.23;;;;;;;5.10;76.47;101768.59;5091275;28;20052;-62
2022/01/12 05:13:42;;;;;;;22.95;15.02;;;;;;;5.02;76.77;101776.44;5091194;28;20516;-61
2022/01/12 05:16:13;;;;;;;31.50;15.57;;;;;;;5.03;76.86;101785.13;5089852;28;20462;-61
2022/01/12 05:18:42;;;;;;;26.73;15.88;;;;;;;5.02;76.83;101778.19;5089219;28;20082;-62
2022/01/12 05:21:10;;;;;;;32.35;16.67;;;;;;;5.02;76.91;101783.41;5090522;28;20573;-60
2022/01/12 05:23:37;;;;;;;26.77;15.07;;;;;;;5.02;77.13;101776.44;5089775;28;20101;-62
2022/01/12 05:26:04;;;;;;;27.95;15.18;;;;;;;5.03;77.52;101774.69;5090883;28;20098;-63
2022/01/12 05:28:32;;;;;;;28.63;15.98;;;;;;;5.03;77.36;101780.78;5089856;28;20040;-61
2022/01/12 05:30:59;;;;;;;35.00;16.58;;;;;;;5.05;77.40;101788.63;5089362;28;20101;-61
2022/01/12 05:33:26;;;;;;;27.02;15.35;;;;;;;5.06;77.51;101783.41;5090819;28;20044;-62
2022/01/12 05:35:55;;;;;;;26.65;15.07;;;;;;;5.07;77.45;101782.53;5089272;28;20573;-62
2022/01/12 05:38:23;;;;;;;28.58;15.50;;;;;;;5.09;77.42;101788.59;5089628;28;20443;-64
2022/01/12 05:40:53;;;;;;;30.88;16.02;;;;;;;5.09;76.93;101786.00;5089336;28;20060;-61
2022/01/12 05:43:24;;;;;;;26.17;15.60;;;;;;;5.11;77.23;101782.50;5089552;28;20044;-63
2022/01/12 05:45:54;;;;;;;28.10;16.90;;;;;;;5.11;77.19;101785.13;5090568;28;20040;-61
2022/01/12 05:50:49;;;;;;;32.17;17.48;;;;;;;5.12;76.87;101789.50;5090392;28;20060;-62
2022/01/12 05:53:17;;;;;;;31.50;18.58;;;;;;;5.11;77.23;101786.00;5090299;28;20048;-62
2022/01/12 05:55:43;;;;;;;36.08;18.33;;;;;;;5.11;77.06;101779.91;5090575;28;20125;-61
2022/01/12 05:58:11;;;;;;;34.78;18.90;;;;;;;5.09;77.28;101788.59;5090255;28;20052;-61
2022/01/12 06:00:38;;;;;;;32.15;17.70;;;;;;;5.07;77.14;101790.38;5089772;28;20044;-61
2022/01/12 06:03:05;;;;;;;38.78;21.25;;;;;;;5.08;77.18;101783.38;5088877;28;20090;-62
2022/01/12 06:05:32;;;;;;;33.50;19.10;;;;;;;5.06;77.25;101783.41;5090114;28;20075;-61
2022/01/12 06:07:58;;;;;;;39.63;20.27;;;;;;;5.06;77.42;101795.59;5090498;28;20052;-61
2022/01/12 06:10:25;;;;;;;34.83;17.83;;;;;;;5.05;77.66;101792.09;5090090;28;20048;-64
2022/01/12 06:12:51;;;;;;;34.88;18.70;;;;;;;5.07;77.82;101797.31;5090140;28;20052;-62
2022/01/12 06:15:18;;;;;;;31.45;18.10;;;;;;;5.08;77.74;101797.31;5089864;28;20093;-61
2022/01/12 06:17:45;;;;;;;31.08;18.65;;;;;;;5.10;77.84;101807.75;5089998;28;20685;-61
2022/01/12 06:20:12;;;;;;;33.92;17.75;;;;;;;5.12;77.88;101816.44;5090039;28;20048;-61
2022/01/12 06:22:38;;;;;;;30.60;17.63;;;;;;;5.13;77.66;101813.00;5088675;28;20056;-62
2022/01/12 06:25:09;;;;;;;35.00;19.55;;;;;;;5.14;77.63;101808.63;5090161;28;20059;-60
2022/01/12 06:27:36;;;;;;;35.33;18.75;;;;;;;5.15;77.33;101815.56;5090135;28;20048;-62
2022/01/12 06:32:31;;;;;;;36.40;20.02;;;;;;;5.13;77.29;101810.38;5089840;28;20093;-63
2022/01/12 06:34:57;;;;;;;39.63;19.38;;;;;;;5.14;77.84;101821.66;5088780;28;20044;-63
2022/01/12 06:37:24;;;;;;;37.00;19.17;;;;;;;5.14;77.87;101821.66;5088689;28;20048;-61
2022/01/12 06:39:51;;;;;;;35.60;18.88;;;;;;;5.14;77.86;101835.59;5089027;28;20109;-61
2022/01/12 06:42:17;;;;;;;39.97;20.13;;;;;;;5.16;77.95;101840.84;5093856;28;20665;-62
2022/01/12 06:44:47;;;;;;;37.90;20.80;;;;;;;5.17;77.77;101847.78;5091510;28;20052;-62
2022/01/12 06:47:14;;;;;;;40.53;20.38;;;;;;;5.18;78.26;101853.00;5092500;28;20044;-62
2022/01/12 06:49:41;;;;;;;39.35;19.63;;;;;;;5.20;78.00;101864.31;5093447;28;20160;-60
2022/01/12 06:52:07;;;;;;;39.88;19.10;;;;;;;5.23;77.99;101876.50;5093818;28;20097;-67
2022/01/12 06:54:34;;;;;;;41.50;18.48;;;;;;;5.25;78.24;101880.00;5093818;28;20047;-61
2022/01/12 06:57:01;;;;;;;37.65;19.55;;;;;;;5.29;78.27;101886.06;5093345;28;20450;-61
2022/01/12 06:59:28;;;;;;;35.88;19.33;;;;;;;5.32;78.24;101889.56;5092379;28;20056;-61
2022/01/12 07:01:54;;;;;;;34.13;19.65;;;;;;;5.35;78.48;101888.69;5093868;28;20055;-61
2022/01/12 07:04:21;;;;;;;37.83;19.75;;;;;;;5.39;78.24;101892.16;5093541;28;20051;-60
2022/01/12 07:06:48;;;;;;;43.53;20.42;;;;;;;5.41;78.23;101886.06;5092481;28;20060;-61
2022/01/12 07:09:16;;;;;;;66.63;21.20;;;;;;;5.45;77.88;101886.91;5093188;28;20046;-60
2022/01/12 07:11:43;;;;;;;41.55;20.67;;;;;;;5.47;77.76;101890.41;5093380;28;20640;-61
2022/01/12 07:14:09;;;;;;;39.58;20.92;;;;;;;5.47;77.73;101886.03;5093474;28;20408;-61
2022/01/12 07:16:36;;;;;;;49.80;19.88;;;;;;;5.50;77.58;101885.19;5093986;28;20466;-60
2022/01/12 07:19:02;;;;;;;40.50;20.27;;;;;;;5.53;77.76;101879.09;5093467;28;20508;-61
2022/01/12 07:21:29;;;;;;;35.47;18.77;;;;;;;5.52;77.50;101886.06;5091735;28;20113;-61
2022/01/12 07:23:56;;;;;;;47.78;20.55;;;;;;;5.53;77.73;101887.78;5091997;28;20101;-61
2022/01/12 07:26:24;;;;;;;34.38;18.65;;;;;;;5.54;77.73;101889.56;5092161;28;20048;-62
2022/01/12 07:28:51;;;;;;;33.13;19.35;;;;;;;5.56;77.80;101885.19;5091627;28;20461;-63
2022/01/12 07:31:17;;;;;;;42.50;19.17;;;;;;;5.58;77.90;101901.69;5091532;28;20446;-61
2022/01/12 07:33:44;;;;;;;40.08;20.20;;;;;;;5.60;77.76;101906.94;5093277;28;20102;-64
2022/01/12 07:36:11;;;;;;;42.10;20.38;;;;;;;5.61;78.02;101912.16;5093097;28;20044;-62
2022/01/12 07:38:37;;;;;;;53.15;19.98;;;;;;;5.63;77.65;101913.88;5093014;28;20492;-61
2022/01/12 07:41:04;;;;;;;35.72;17.92;;;;;;;5.65;77.77;101917.38;5092736;28;20051;-62
2022/01/12 07:43:30;;;;;;;47.63;19.23;;;;;;;5.64;77.48;101906.06;5093027;28;20055;-61
2022/01/12 07:45:57;;;;;;;46.65;20.90;;;;;;;5.63;77.29;101922.63;5092753;28;20075;-61
2022/01/12 07:48:25;;;;;;;45.78;19.38;;;;;;;5.64;77.23;101918.28;5092812;28;20536;-63
2022/01/12 07:50:52;;;;;;;35.42;17.80;;;;;;;5.64;77.34;101920.88;5092215;28;20060;-61
2022/01/12 07:53:19;;;;;;;35.08;17.90;;;;;;;5.64;77.77;101923.50;5091751;28;20106;-61
2022/01/12 07:55:45;;;;;;;35.22;18.92;;;;;;;5.62;77.93;101923.50;5093155;28;20061;-61
2022/01/12 07:58:12;;;;;;;35.65;18.60;;;;;;;5.65;77.85;101930.47;5092586;28;20055;-60
2022/01/12 08:00:38;;;;;;;39.47;18.83;;;;;;;5.66;77.60;101929.56;5092474;28;20048;-61
2022/01/12 08:03:05;;;;;;;64.00;20.27;;;;;;;5.69;77.82;101924.34;5092520;28;20048;-62
2022/01/12 08:05:32;;;;;;;47.83;19.90;;;;;;;5.69;77.46;101929.59;5092308;28;20044;-61
2022/01/12 08:07:59;;;;;;;50.15;20.55;;;;;;;5.68;77.21;101938.31;5092304;28;20056;-61
2022/01/12 08:10:25;;;;;;;44.13;19.98;;;;;;;5.67;77.05;101947.88;5092194;28;20105;-63
2022/01/12 08:12:52;;;;;;;44.35;20.17;;;;;;;5.66;77.06;101945.25;5092335;28;20048;-61
2022/01/12 08:15:19;;;;;;;44.60;19.75;;;;;;;5.64;77.11;101954.84;5092297;28;20120;-61
2022/01/12 08:17:45;;;;;;;38.42;18.13;;;;;;;5.62;77.00;101960.06;5090738;28;20074;-61
2022/01/12 08:20:14;;;;;;;32.67;17.65;;;;;;;5.60;77.60;101965.28;5091703;28;20052;-61
2022/01/12 08:22:41;;;;;;;40.95;17.98;;;;;;;5.60;77.86;101975.75;5092036;28;20124;-62
2022/01/12 08:25:10;;;;;;;50.03;20.92;;;;;;;5.60;77.62;101964.41;5092058;28;20048;-63
2022/01/12 08:27:37;;;;;;;35.42;19.30;;;;;;;5.61;77.70;101974.88;5091914;28;20056;-62
2022/01/12 08:30:15;;;;;;;37.42;18.25;;;;;;;5.63;77.70;101976.59;5090364;28;20044;-60
2022/01/12 08:32:41;;;;;;;32.30;18.15;;;;;;;5.66;78.06;101985.34;5091924;28;20121;-60
2022/01/12 08:35:08;;;;;;;34.55;17.92;;;;;;;5.68;78.19;101990.56;5091486;28;20113;-62
2022/01/12 08:37:35;;;;;;;42.33;20.48;;;;;;;5.69;77.92;101987.06;5091727;28;20073;-60
2022/01/12 08:40:02;;;;;;;36.92;19.27;;;;;;;5.71;77.96;101985.31;5091968;28;20056;-61
2022/01/12 08:42:29;;;;;;;34.45;18.58;;;;;;;5.73;77.84;101988.81;5090427;28;20048;-61
2022/01/12 08:44:59;;;;;;;39.92;19.60;;;;;;;5.73;77.64;101989.66;5090599;28;20480;-60
2022/01/12 08:47:26;;;;;;;37.42;19.63;;;;;;;5.75;77.62;101989.66;5091590;28;20056;-60
2022/01/12 08:49:53;;;;;;;35.85;20.10;;;;;;;5.75;77.51;101981.81;5090150;28;20059;-61
2022/01/12 08:52:22;;;;;;;40.25;20.95;;;;;;;5.72;77.62;101985.31;5091625;28;20048;-61
2022/01/12 08:54:50;;;;;;;45.28;20.45;;;;;;;5.72;77.47;101987.06;5091681;28;20059;-61
2022/01/12 08:57:16;;;;;;;33.97;18.92;;;;;;;5.71;77.62;101991.41;5091062;28;20113;-63
2022/01/12 08:59:44;;;;;;;38.70;20.92;;;;;;;5.72;78.06;102000.13;5090964;28;20488;-62
2022/01/12 09:02:14;;;;;;;47.75;20.92;;;;;;;5.71;77.66;101995.75;5090959;28;20040;-61
2022/01/12 09:04:44;;;;;;;46.40;20.75;;;;;;;5.68;77.18;102001.88;5089788;28;20052;-61
2022/01/12 09:07:11;;;;;;;37.85;19.45;;;;;;;5.69;77.90;102002.75;5091295;28;20117;-63
2022/01/12 09:09:39;;;;;;;38.53;21.08;;;;;;;5.69;78.13;101994.91;5090716;28;20567;-63
2022/01/12 09:12:06;;;;;;;35.13;18.77;;;;;;;5.70;78.42;102000.13;5090059;28;20052;-61
2022/01/12 09:14:34;;;;;;;39.55;19.92;;;;;;;5.71;78.34;102001.00;5088988;28;20488;-61
2022/01/12 09:17:01;;;;;;;39.20;20.33;;;;;;;5.73;78.36;101999.25;5091263;28;20056;-61
2022/01/12 09:19:28;;;;;;;38.90;20.45;;;;;;;5.75;78.56;102007.97;5090615;28;20051;-61
2022/01/12 09:21:56;;;;;;;37.10;19.75;;;;;;;5.77;78.54;101995.78;5089630;28;20093;-60
2022/01/12 09:24:22;;;;;;;47.78;22.35;;;;;;;5.80;78.39;102000.97;5089821;28;20055;-60
2022/01/12 09:26:49;;;;;;;52.85;24.10;;;;;;;5.81;78.15;101986.19;5090795;28;20047;-62
2022/01/12 09:29:17;;;;;;;57.13;23.02;;;;;;;5.82;78.15;101988.78;5089564;28;20052;-60
2022/01/12 09:31:45;;;;;;;50.38;25.33;;;;;;;5.82;78.39;101993.16;5090885;28;20044;-60
2022/01/12 09:34:11;;;;;;;50.17;23.73;;;;;;;5.84;78.05;102001.88;5090915;28;20048;-62
2022/01/12 09:36:38;;;;;;;42.17;22.08;;;;;;;5.83;78.62;101995.75;5090687;28;20094;-61
2022/01/12 09:39:06;;;;;;;78.35;24.13;;;;;;;5.85;78.86;102001.00;5090734;28;20052;-61
2022/01/12 09:41:33;;;;;;;58.60;24.40;;;;;;;5.87;78.62;102007.09;5089246;28;20048;-67
2022/01/12 09:44:00;;;;;;;47.40;23.52;;;;;;;5.90;78.49;102014.91;5090675;28;20048;-62
2022/01/12 09:46:26;;;;;;;53.45;24.60;;;;;;;5.91;78.94;102015.81;5090713;28;20052;-60
2022/01/12 09:48:55;;;;;;;43.63;23.00;;;;;;;5.93;78.83;102019.28;5090631;28;20052;-62
2022/01/12 09:51:23;;;;;;;46.33;23.00;;;;;;;5.97;79.11;102021.00;5088731;28;20109;-61
2022/01/12 09:53:51;;;;;;;39.00;21.83;;;;;;;5.99;79.25;102029.75;5086963;28;20490;-62
2022/01/12 09:56:21;;;;;;;49.10;23.23;;;;;;;6.04;79.31;102038.47;5088577;28;20113;-63
2022/01/12 09:58:51;;;;;;;42.58;22.20;;;;;;;6.10;79.54;102046.31;5088843;28;20056;-62
2022/01/12 10:01:36;;;;;;;43.35;20.50;;;;;;;6.15;78.96;102050.66;5088467;28;20052;-62
2022/01/12 10:04:14;;;;;;;35.58;19.88;;;;;;;6.24;78.82;102040.19;5087323;28;20086;-61
2022/01/12 10:06:45;;;;;;;43.85;21.60;;;;;;;6.33;79.33;102042.81;5088551;28;20048;-61
2022/01/12 10:09:14;;;;;;;38.58;20.13;;;;;;;6.41;79.47;102045.38;5088762;28;20523;-61
2022/01/12 10:11:57;;;;;;;40.88;21.73;;;;;;;6.43;78.17;102050.63;5090321;28;20408;-62
2022/01/12 10:14:24;;;;;;;;;;;;;;;6.52;77.49;102055.81;5089088;28;20402;-60
2022/01/12 10:16:56;;;;;;;36.92;18.92;;;;;;;6.59;78.47;102054.94;5089864;28;19924;-62
2022/01/12 10:19:33;;;;;;;34.97;19.98;;;;;;;6.61;77.74;102050.56;5088101;28;20098;-61
2022/01/12 10:22:03;;;;;;;35.72;18.77;;;;;;;6.67;78.68;102040.94;5088993;28;20047;-60
2022/01/12 10:24:30;;;;;;;35.20;19.60;;;;;;;6.71;78.99;102048.78;5090241;28;20047;-60
2022/01/12 10:26:57;;;;;;;34.17;19.05;;;;;;;6.73;78.53;102048.78;5090121;28;20052;-62
2022/01/12 10:29:27;;;;;;;35.10;18.90;;;;;;;6.74;78.53;102048.78;5088285;28;20545;-61
2022/01/12 10:31:57;;;;;;;35.92;19.35;;;;;;;6.78;78.38;102063.56;5090158;28;20044;-61
2022/01/12 10:34:29;;;;;;;31.27;18.35;;;;;;;6.78;77.80;102055.72;5088795;28;20523;-60
2022/01/12 10:36:57;;;;;;;34.53;19.65;;;;;;;6.83;78.51;102058.34;5089878;28;20056;-61
2022/01/12 10:39:27;;;;;;;33.83;17.83;;;;;;;6.85;78.48;102060.94;5088423;28;20052;-61
2022/01/12 10:42:01;;;;;;;34.13;19.05;;;;;;;6.88;77.89;102067.03;5088666;28;20096;-62
2022/01/12 10:44:34;;;;;;;37.03;19.90;;;;;;;6.91;78.02;102067.03;5090397;28;20051;-60
2022/01/12 10:47:02;;;;;;;;;;;;;;;6.94;76.40;102052.16;5089557;28;20052;-60
2022/01/12 10:49:36;;;;;;;;;;;;;;;6.99;76.37;102046.03;5090092;28;20023;-61
2022/01/12 10:52:07;;;;;;;30.08;15.93;;;;;;;7.01;77.29;102049.53;5089864;28;19927;-59
2022/01/12 10:54:42;;;;;;;36.08;18.95;;;;;;;6.99;77.02;102058.28;5088602;28;20098;-60
2022/01/12 10:57:19;;;;;;;33.05;18.33;;;;;;;6.99;77.40;102063.50;5088796;28;20608;-60
2022/01/12 11:00:24;;;;;;;31.23;17.35;;;;;;;6.96;76.83;102068.75;5089593;28;20466;-62
2022/01/12 11:02:56;;;;;;;32.10;17.00;;;;;;;7.02;78.12;102061.75;5088470;28;20059;-61
2022/01/12 11:05:30;;;;;;;34.10;19.10;;;;;;;7.04;77.82;102061.75;5088463;28;20477;-63
2022/01/12 11:07:57;;;;;;;35.97;19.17;;;;;;;7.12;78.50;102067.81;5089926;28;20637;-60
2022/01/12 11:10:26;;;;;;;33.88;18.50;;;;;;;7.15;78.61;102070.38;5089467;28;20096;-63
2022/01/12 11:12:53;;;;;;;32.97;19.60;;;;;;;7.20;78.98;102066.88;5089657;28;20125;-60
2022/01/12 11:15:21;;;;;;;37.75;19.33;;;;;;;7.22;78.59;102078.22;5089561;28;20090;-61
2022/01/12 11:17:51;;;;;;;31.55;18.83;;;;;;;7.25;78.51;102073.00;5089911;28;20051;-60
2022/01/12 11:20:25;;;;;;;32.85;17.50;;;;;;;7.28;78.12;102067.72;5088433;28;20087;-62
2022/01/12 11:23:00;;;;;;;33.00;16.92;;;;;;;7.35;78.22;102065.91;5089653;28;20048;-63
2022/01/12 11:25:38;;;;;;;30.23;15.35;;;;;;;7.39;78.11;102065.03;5088480;28;20059;-61
2022/01/12 11:28:37;;;;;;;32.42;15.93;;;;;;;7.44;77.46;102055.38;5093492;28;20044;-60
2022/01/12 11:31:04;;;;;;;29.20;16.55;;;;;;;7.54;78.60;102048.31;5092453;28;20052;-63
2022/01/12 11:33:31;;;;;;;34.83;16.40;;;;;;;7.58;78.55;102047.44;5093223;28;20047;-60
2022/01/12 11:36:04;;;;;;;30.65;15.20;;;;;;;7.58;77.35;102039.56;5093113;28;20070;-61
2022/01/12 11:38:34;;;;;;;29.15;15.10;;;;;;;7.62;77.87;102033.41;5091915;28;20048;-60
2022/01/12 11:41:14;;;;;;;24.50;13.82;;;;;;;7.62;76.71;102032.56;5091481;28;20507;-60
2022/01/12 11:43:44;;;;;;;26.17;14.18;;;;;;;7.67;78.14;102034.25;5091609;28;20047;-60
2022/01/12 11:46:16;;;;;;;26.30;14.52;;;;;;;7.71;78.48;102028.97;5092893;28;20488;-61
2022/01/12 11:48:48;;;;;;;33.33;15.02;;;;;;;7.76;78.27;102029.81;5091470;28;20135;-60
2022/01/12 11:51:31;;;;;;;27.10;14.25;;;;;;;7.78;77.44;102036.78;5092185;28;20385;-60
2022/01/12 11:54:08;;;;;;;30.42;15.00;;;;;;;7.83;77.82;102031.50;5091627;28;20052;-61
2022/01/12 11:56:37;;;;;;;31.75;16.77;;;;;;;7.89;78.57;102038.47;5092640;28;20048;-60
2022/01/12 11:59:12;;;;;;;28.00;15.55;;;;;;;7.91;77.19;102041.91;5091248;28;20044;-61
2022/01/12 12:01:50;;;;;;;27.45;15.45;;;;;;;7.98;78.83;102041.00;5092929;28;20052;-61
2022/01/12 12:04:26;;;;;;;24.40;14.32;;;;;;;8.03;78.00;102038.31;5092631;28;20153;-61
2022/01/12 12:07:13;;;;;;;29.55;14.98;;;;;;;8.07;77.29;102045.25;5091268;28;20051;-61
2022/01/12 12:09:52;;;;;;;28.92;13.20;;;;;;;8.20;79.17;102046.91;5091989;28;20462;-61
2022/01/12 12:12:26;;;;;;;28.73;13.38;;;;;;;8.26;77.96;102045.97;5091214;28;20113;-62
2022/01/12 12:14:57;;;;;;;27.83;15.50;;;;;;;8.35;78.26;102045.00;5091064;28;20450;-61
2022/01/12 12:17:26;;;;;;;27.30;14.57;;;;;;;8.40;78.49;102044.94;5092259;28;20044;-62
2022/01/12 12:19:54;;;;;;;28.05;14.80;;;;;;;8.45;78.04;102041.38;5091872;28;20056;-61
2022/01/12 12:22:22;;;;;;;31.35;14.82;;;;;;;8.48;77.58;102036.09;5092001;28;20055;-62
2022/01/12 12:25:09;;;;;;;28.67;15.35;;;;;;;8.49;75.61;102026.50;5092109;28;20446;-60
2022/01/12 12:27:37;;;;;;;29.48;15.40;;;;;;;8.57;77.69;102029.03;5092212;28;20421;-61
2022/01/12 12:30:07;;;;;;;32.28;15.75;;;;;;;8.57;76.78;102023.78;5091793;28;20483;-61
2022/01/12 12:32:42;;;;;;;27.50;14.45;;;;;;;8.59;77.22;102019.38;5091851;28;20138;-60
2022/01/12 12:35:11;;;;;;;28.92;15.43;;;;;;;8.59;76.88;102017.63;5090812;28;20048;-60
2022/01/12 12:37:47;;;;;;;32.08;15.02;;;;;;;8.62;76.94;102021.09;5091393;28;20044;-61
2022/01/12 12:40:16;;;;;;;29.48;14.77;;;;;;;8.70;78.61;102030.63;5091668;28;20052;-62
2022/01/12 12:42:46;;;;;;;27.90;15.25;;;;;;;8.77;78.69;102035.78;5091706;28;20075;-60
2022/01/12 12:45:12;;;;;;;31.13;16.80;;;;;;;8.84;78.77;102030.47;5091989;28;20056;-60
2022/01/12 12:47:40;;;;;;;24.20;14.02;;;;;;;8.92;78.60;102035.59;5091930;28;20040;-60
2022/01/12 12:50:12;;;;;;;24.65;13.20;;;;;;;9.00;78.46;102035.50;5090180;28;20125;-60